Time;durP1;ratioP1;P1;durP2;ratioP2;P2;SDS_P1;SDS_P2;PMS_P1;PMS_P2;Temp;Humidity;BMP_temperature;BMP_pressure;BME280_temperature;BME280_humidity;BME280_pressure;Samples;Min_cycle;Max_cycle;Signal;HPM_P1;HPM_P2
2021/08/10 00:01:30;;;;;;;66.38;62.75;;;;;;;;;;4998040;28;20050;-82
2021/08/10 00:03:57;;;;;;;70.68;66.75;;;;;;;;;;4996878;28;20735;-82
2021/08/10 00:06:25;;;;;;;66.15;62.72;;;;;;;;;;4980731;28;20454;-82
2021/08/10 00:08:51;;;;;;;66.78;62.80;;;;;;;;;;4996778;28;20050;-82
2021/08/10 00:11:18;;;;;;;67.18;63.47;;;;;;;;;;4997965;28;20058;-82
2021/08/10 00:13:45;;;;;;;69.30;65.60;;;;;;;;;;4996199;28;20529;-82
2021/08/10 00:16:12;;;;;;;69.75;65.78;;;;;;;;;;4996507;28;20411;-82
2021/08/10 00:18:38;;;;;;;67.93;64.22;;;;;;;;;;4997767;28;20056;-82
2021/08/10 00:21:05;;;;;;;73.07;68.93;;;;;;;;;;4999930;28;20054;-82
2021/08/10 00:23:33;;;;;;;71.30;67.20;;;;;;;;;;4997237;28;20061;-82
2021/08/10 00:25:59;;;;;;;71.13;66.88;;;;;;;;;;4996673;28;20411;-82
2021/08/10 00:28:26;;;;;;;67.05;63.53;;;;;;;;;;4998103;28;20057;-82
2021/08/10 00:30:53;;;;;;;69.85;66.05;;;;;;;;;;4997397;28;20061;-82
2021/08/10 00:33:20;;;;;;;72.68;68.50;;;;;;;;;;4997095;28;20101;-82
2021/08/10 00:35:47;;;;;;;70.45;66.65;;;;;;;;;;4997711;28;20060;-82
2021/08/10 00:38:14;;;;;;;68.95;65.38;;;;;;;;;;4997246;28;20050;-82
2021/08/10 00:40:42;;;;;;;68.28;64.57;;;;;;;;;;4981327;28;20053;-82
2021/08/10 00:43:31;;;;;;;73.88;69.85;;;;;;;;;;4998933;28;20042;-82
2021/08/10 00:45:58;;;;;;;71.30;67.30;;;;;;;;;;4993725;28;20057;-83
2021/08/10 00:48:25;;;;;;;63.67;60.45;;;;;;;;;;4999461;28;20043;-82
2021/08/10 00:50:51;;;;;;;75.88;71.85;;;;;;;;;;4999910;28;20088;-82
2021/08/10 00:53:18;;;;;;;77.07;72.95;;;;;;;;;;4999399;28;20057;-82
2021/08/10 00:55:47;;;;;;;77.85;73.57;;;;;;;;;;4981690;28;20113;-82
2021/08/10 00:58:14;;;;;;;83.90;79.10;;;;;;;;;;4998052;28;20046;-81
2021/08/10 01:00:41;;;;;;;82.47;77.95;;;;;;;;;;4996341;28;20049;-82
2021/08/10 01:03:08;;;;;;;77.75;73.47;;;;;;;;;;4996462;28;20050;-81
2021/08/10 01:05:36;;;;;;;78.60;74.07;;;;;;;;;;4999490;28;20056;-82
2021/08/10 01:08:07;;;;;;;82.30;77.72;;;;;;;;;;4997351;28;20051;-82
2021/08/10 01:10:37;;;;;;;66.95;63.50;;;;;;;;;;4996819;28;20404;-82
2021/08/10 01:13:11;;;;;;;77.55;73.35;;;;;;;;;;4997141;28;20047;-83
2021/08/10 01:15:41;;;;;;;78.82;74.43;;;;;;;;;;4996316;28;20058;-82
2021/08/10 01:18:14;;;;;;;82.13;77.75;;;;;;;;;;4996880;28;20058;-82
2021/08/10 01:20:53;;;;;;;83.95;79.40;;;;;;;;;;4996704;28;20050;-83
2021/08/10 01:23:24;;;;;;;82.68;78.22;;;;;;;;;;4996729;28;20048;-82
2021/08/10 01:25:57;;;;;;;71.20;67.43;;;;;;;;;;4996519;28;20133;-83
2021/08/10 01:28:35;;;;;;;78.85;74.53;;;;;;;;;;4996509;28;20047;-82
2021/08/10 01:31:17;;;;;;;79.80;75.43;;;;;;;;;;4996889;28;20074;-83
2021/08/10 01:33:46;;;;;;;70.55;66.88;;;;;;;;;;4996450;28;20491;-82
2021/08/10 01:36:14;;;;;;;52.30;49.50;;;;;;;;;;4996540;28;20061;-82
2021/08/10 01:38:43;;;;;;;70.07;66.38;;;;;;;;;;4996392;28;20650;-82
2021/08/10 01:41:12;;;;;;;72.00;68.20;;;;;;;;;;4996095;28;20537;-82
2021/08/10 01:43:39;;;;;;;60.40;57.45;;;;;;;;;;4996261;28;20792;-82
2021/08/10 01:46:06;;;;;;;55.60;52.78;;;;;;;;;;4996450;28;20080;-82
2021/08/10 01:48:34;;;;;;;42.75;40.45;;;;;;;;;;4996457;28;20046;-82
2021/08/10 01:51:01;;;;;;;62.92;59.70;;;;;;;;;;4996190;28;20046;-82
2021/08/10 01:53:29;;;;;;;60.05;57.08;;;;;;;;;;4996402;28;20046;-83
2021/08/10 01:55:57;;;;;;;63.40;60.30;;;;;;;;;;4995188;28;20104;-82
2021/08/10 01:58:25;;;;;;;75.75;71.75;;;;;;;;;;4996516;28;20050;-82
2021/08/10 02:00:53;;;;;;;52.85;50.20;;;;;;;;;;4995845;28;20054;-82
2021/08/10 02:03:20;;;;;;;71.65;67.88;;;;;;;;;;4996214;28;20047;-83
2021/08/10 02:05:48;;;;;;;56.95;53.80;;;;;;;;;;4994592;28;20048;-82
2021/08/10 02:08:15;;;;;;;68.80;65.32;;;;;;;;;;4994578;28;20050;-82
2021/08/10 02:10:42;;;;;;;61.33;58.25;;;;;;;;;;4995480;28;20057;-82
2021/08/10 02:13:10;;;;;;;70.10;66.50;;;;;;;;;;4995885;28;20046;-82
2021/08/10 02:15:39;;;;;;;64.90;61.67;;;;;;;;;;4995849;28;20042;-82
2021/08/10 02:18:06;;;;;;;71.97;68.05;;;;;;;;;;4996190;28;20173;-83
2021/08/10 02:20:33;;;;;;;69.70;66.00;;;;;;;;;;4996022;28;20061;-83
2021/08/10 02:23:01;;;;;;;49.33;46.80;;;;;;;;;;4978749;28;20403;-82
2021/08/10 02:25:28;;;;;;;70.40;66.82;;;;;;;;;;4995931;28;20408;-83
2021/08/10 02:27:57;;;;;;;61.08;58.08;;;;;;;;;;4996054;28;20050;-83
2021/08/10 02:30:26;;;;;;;73.85;70.07;;;;;;;;;;4995563;28;20061;-82
2021/08/10 02:32:54;;;;;;;71.35;67.63;;;;;;;;;;4995368;28;20395;-83
2021/08/10 02:35:22;;;;;;;74.15;70.18;;;;;;;;;;4995426;28;20050;-83
2021/08/10 02:37:49;;;;;;;74.70;70.82;;;;;;;;;;4995169;28;20498;-83
2021/08/10 02:40:18;;;;;;;81.15;76.95;;;;;;;;;;4995678;28;20121;-83
2021/08/10 02:42:49;;;;;;;41.55;39.58;;;;;;;;;;4994753;28;20072;-83
2021/08/10 02:45:16;;;;;;;47.60;45.20;;;;;;;;;;4995177;28;20053;-83
2021/08/10 02:47:49;;;;;;;73.57;69.88;;;;;;;;;;4994778;28;20491;-82
2021/08/10 02:50:16;;;;;;;69.45;65.80;;;;;;;;;;4995148;28;20057;-82
2021/08/10 02:52:42;;;;;;;64.18;60.78;;;;;;;;;;4994980;28;20509;-82
2021/08/10 02:55:09;;;;;;;73.35;69.53;;;;;;;;;;4995148;28;20057;-82
2021/08/10 02:57:42;;;;;;;69.38;65.80;;;;;;;;;;4994745;28;20053;-82
2021/08/10 03:00:11;;;;;;;54.00;51.33;;;;;;;;;;4995150;28;20054;-82
2021/08/10 03:02:41;;;;;;;56.63;53.72;;;;;;;;;;4995229;28;20372;-82
2021/08/10 03:05:10;;;;;;;68.82;65.20;;;;;;;;;;4995486;28;20054;-82
2021/08/10 03:07:39;;;;;;;56.35;53.65;;;;;;;;;;4995661;28;20523;-82
2021/08/10 03:10:06;;;;;;;51.63;49.13;;;;;;;;;;4997054;28;20046;-82
2021/08/10 03:12:39;;;;;;;37.30;35.55;;;;;;;;;;4997742;28;20054;-83
2021/08/10 03:15:06;;;;;;;35.88;33.97;;;;;;;;;;4999231;28;20050;-83
2021/08/10 03:17:36;;;;;;;53.85;51.20;;;;;;;;;;4996812;28;20046;-82
2021/08/10 03:20:05;;;;;;;25.58;24.20;;;;;;;;;;4996779;28;20046;-82
2021/08/10 03:22:33;;;;;;;22.02;21.02;;;;;;;;;;4996693;28;20050;-82
2021/08/10 03:25:00;;;;;;;21.23;20.15;;;;;;;;;;4996493;28;20050;-82
2021/08/10 03:27:28;;;;;;;22.05;20.55;;;;;;;;;;4996367;28;20061;-82
2021/08/10 03:29:56;;;;;;;21.75;20.60;;;;;;;;;;4996898;28;20050;-82
2021/08/10 03:32:22;;;;;;;16.27;15.27;;;;;;;;;;4996077;28;20053;-82
2021/08/10 03:34:49;;;;;;;37.35;35.58;;;;;;;;;;4995763;28;20053;-82
2021/08/10 03:37:17;;;;;;;59.22;56.28;;;;;;;;;;4996016;28;20491;-82
2021/08/10 03:39:44;;;;;;;55.78;52.63;;;;;;;;;;4996825;28;20050;-82
2021/08/10 03:42:11;;;;;;;31.10;29.55;;;;;;;;;;4977497;28;20384;-82
2021/08/10 03:44:42;;;;;;;49.30;46.67;;;;;;;;;;4977490;28;20070;-82
2021/08/10 03:47:10;;;;;;;54.78;52.25;;;;;;;;;;4977464;28;20142;-82
2021/08/10 03:49:37;;;;;;;54.33;51.63;;;;;;;;;;4977602;28;20043;-82
2021/08/10 03:52:05;;;;;;;49.63;47.25;;;;;;;;;;4976978;28;20050;-83
2021/08/10 03:54:32;;;;;;;64.38;61.10;;;;;;;;;;4978057;28;20050;-83
2021/08/10 03:56:59;;;;;;;59.90;56.92;;;;;;;;;;4978051;28;20050;-83
2021/08/10 03:59:26;;;;;;;54.60;51.85;;;;;;;;;;4978930;28;20061;-83
2021/08/10 04:01:53;;;;;;;64.68;61.15;;;;;;;;;;4982762;28;20069;-82
2021/08/10 04:04:22;;;;;;;68.07;64.32;;;;;;;;;;4998116;28;20112;-82
2021/08/10 04:06:49;;;;;;;63.70;60.55;;;;;;;;;;4978251;28;20059;-82
2021/08/10 04:09:16;;;;;;;51.85;49.35;;;;;;;;;;4977780;28;20575;-82
2021/08/10 04:11:42;;;;;;;55.35;52.65;;;;;;;;;;4979321;28;20047;-81
2021/08/10 04:14:09;;;;;;;64.55;61.20;;;;;;;;;;4979611;28;20047;-82
2021/08/10 04:16:47;;;;;;;54.23;51.50;;;;;;;;;;4979727;28;20047;-84
2021/08/10 04:19:15;;;;;;;60.85;57.65;;;;;;;;;;4985877;28;20126;-83
2021/08/10 04:21:42;;;;;;;71.15;67.43;;;;;;;;;;4988999;28;20047;-83
2021/08/10 04:24:09;;;;;;;60.33;57.33;;;;;;;;;;4982453;28;20054;-83
2021/08/10 04:26:36;;;;;;;42.95;40.90;;;;;;;;;;4987312;28;20046;-83
2021/08/10 04:29:03;;;;;;;65.47;61.85;;;;;;;;;;4991384;28;20050;-82
2021/08/10 04:31:29;;;;;;;38.85;37.08;;;;;;;;;;4989459;28;20051;-83
2021/08/10 04:33:56;;;;;;;26.77;25.48;;;;;;;;;;4988329;28;20051;-83
2021/08/10 04:36:22;;;;;;;43.42;40.97;;;;;;;;;;4997025;28;20080;-82
2021/08/10 04:38:50;;;;;;;59.60;56.67;;;;;;;;;;5000359;28;20053;-83
2021/08/10 04:41:17;;;;;;;55.65;52.72;;;;;;;;;;5000143;28;20058;-83
2021/08/10 04:43:43;;;;;;;29.52;28.15;;;;;;;;;;4999806;28;20054;-83
2021/08/10 04:46:10;;;;;;;58.42;55.42;;;;;;;;;;5001249;28;20048;-83
2021/08/10 04:48:36;;;;;;;64.53;61.03;;;;;;;;;;4993988;28;20050;-83
2021/08/10 04:51:03;;;;;;;61.78;58.70;;;;;;;;;;4984418;28;20055;-83
2021/08/10 04:53:29;;;;;;;61.65;58.40;;;;;;;;;;4980747;28;20053;-82
2021/08/10 04:55:57;;;;;;;65.68;62.08;;;;;;;;;;4977949;28;20050;-82
2021/08/10 04:58:23;;;;;;;64.07;60.83;;;;;;;;;;4977888;28;20483;-82
2021/08/10 05:00:51;;;;;;;68.50;64.95;;;;;;;;;;4978148;28;20373;-83
2021/08/10 05:03:17;;;;;;;61.05;57.83;;;;;;;;;;4992019;28;20076;-82
2021/08/10 05:05:44;;;;;;;67.90;64.22;;;;;;;;;;4996956;28;20058;-82
2021/08/10 05:08:10;;;;;;;64.68;61.17;;;;;;;;;;4996108;28;20051;-82
2021/08/10 05:10:37;;;;;;;59.03;55.45;;;;;;;;;;4995889;28;20048;-82
2021/08/10 05:13:05;;;;;;;55.67;52.33;;;;;;;;;;4995603;28;20047;-82
2021/08/10 05:15:31;;;;;;;50.30;47.88;;;;;;;;;;4995687;28;20050;-82
2021/08/10 05:17:58;;;;;;;63.63;60.30;;;;;;;;;;4995341;28;20483;-83
2021/08/10 05:20:24;;;;;;;58.75;55.65;;;;;;;;;;4995658;28;20065;-82
2021/08/10 05:22:51;;;;;;;55.83;53.03;;;;;;;;;;4995095;28;20491;-82
2021/08/10 05:25:17;;;;;;;44.47;42.28;;;;;;;;;;4996720;28;20081;-82
2021/08/10 05:27:44;;;;;;;41.60;39.50;;;;;;;;;;4996107;28;20066;-82
2021/08/10 05:30:14;;;;;;;41.47;39.47;;;;;;;;;;4995949;28;20058;-83
2021/08/10 05:32:40;;;;;;;26.75;25.23;;;;;;;;;;4995518;28;20061;-82
2021/08/10 05:35:08;;;;;;;27.27;25.80;;;;;;;;;;4993876;28;20053;-83
2021/08/10 05:37:34;;;;;;;28.75;27.35;;;;;;;;;;4985994;28;20498;-83
2021/08/10 05:40:01;;;;;;;39.13;37.22;;;;;;;;;;4982019;28;20045;-83
2021/08/10 05:42:28;;;;;;;37.42;35.70;;;;;;;;;;4983230;28;20052;-83
2021/08/10 05:44:54;;;;;;;48.42;45.95;;;;;;;;;;4990260;28;20480;-82
2021/08/10 05:47:22;;;;;;;47.55;45.15;;;;;;;;;;4977161;28;20639;-82
2021/08/10 05:49:49;;;;;;;48.92;46.35;;;;;;;;;;4986861;28;20043;-82
2021/08/10 05:52:15;;;;;;;46.97;43.75;;;;;;;;;;4984008;28;20499;-82
2021/08/10 05:54:42;;;;;;;67.43;62.97;;;;;;;;;;4994347;28;20510;-82
2021/08/10 05:57:09;;;;;;;63.38;59.17;;;;;;;;;;4994626;28;20042;-82
2021/08/10 05:59:35;;;;;;;64.95;60.95;;;;;;;;;;4986411;28;20408;-82
2021/08/10 06:02:02;;;;;;;61.25;57.35;;;;;;;;;;4989144;28;20038;-83
2021/08/10 06:04:30;;;;;;;61.55;57.80;;;;;;;;;;4993851;28;20043;-83
2021/08/10 06:06:58;;;;;;;63.97;59.63;;;;;;;;;;4989888;28;20039;-82
2021/08/10 06:09:25;;;;;;;64.43;60.72;;;;;;;;;;4978433;28;20047;-82
2021/08/10 06:11:51;;;;;;;64.13;60.20;;;;;;;;;;4988413;28;20046;-82
2021/08/10 06:14:18;;;;;;;61.95;58.40;;;;;;;;;;4993157;28;20126;-83
2021/08/10 06:16:45;;;;;;;66.72;63.03;;;;;;;;;;4993028;28;20050;-83
2021/08/10 06:19:11;;;;;;;61.50;57.80;;;;;;;;;;4982132;28;20039;-83
2021/08/10 06:21:40;;;;;;;62.83;59.25;;;;;;;;;;4984228;28;20047;-83
2021/08/10 06:24:07;;;;;;;60.97;57.28;;;;;;;;;;4989096;28;20085;-83
2021/08/10 06:26:39;;;;;;;63.70;59.42;;;;;;;;;;4987841;28;20057;-83
2021/08/10 06:29:06;;;;;;;61.85;58.50;;;;;;;;;;4974443;28;20388;-83
2021/08/10 06:31:33;;;;;;;65.47;62.22;;;;;;;;;;4985858;28;20057;-84
2021/08/10 06:33:59;;;;;;;66.70;63.60;;;;;;;;;;4994869;28;20042;-83
2021/08/10 06:36:26;;;;;;;70.03;66.85;;;;;;;;;;4979031;28;20046;-83
2021/08/10 06:38:54;;;;;;;65.82;62.45;;;;;;;;;;4975591;28;20051;-83
2021/08/10 06:41:20;;;;;;;70.55;67.30;;;;;;;;;;4991620;28;20073;-83
2021/08/10 06:43:47;;;;;;;72.20;68.88;;;;;;;;;;4988403;28;20063;-84
2021/08/10 06:46:13;;;;;;;72.50;69.22;;;;;;;;;;4978180;28;20706;-84
2021/08/10 06:48:40;;;;;;;78.07;74.47;;;;;;;;;;4977161;28;20054;-83
2021/08/10 06:51:06;;;;;;;77.10;73.72;;;;;;;;;;4974791;28;20055;-81
2021/08/10 06:53:33;;;;;;;85.18;81.45;;;;;;;;;;4974794;28;20660;-81
2021/08/10 06:56:01;;;;;;;80.40;76.72;;;;;;;;;;4975468;28;20404;-81
2021/08/10 06:58:28;;;;;;;87.60;83.75;;;;;;;;;;4974675;28;20470;-82
2021/08/10 07:00:55;;;;;;;88.40;84.30;;;;;;;;;;4974195;28;20046;-82
2021/08/10 07:03:22;;;;;;;91.20;87.20;;;;;;;;;;4959194;28;20051;-82
2021/08/10 07:05:48;;;;;;;85.93;82.03;;;;;;;;;;4973860;28;20061;-82
2021/08/10 07:08:15;;;;;;;79.85;76.25;;;;;;;;;;4975242;28;20058;-81
2021/08/10 07:10:42;;;;;;;84.07;79.85;;;;;;;;;;4977488;28;20467;-82
2021/08/10 07:13:10;;;;;;;61.17;58.17;;;;;;;;;;4975563;28;20057;-82
2021/08/10 07:15:37;;;;;;;65.22;62.28;;;;;;;;;;4975599;28;20049;-82
2021/08/10 07:18:04;;;;;;;75.32;71.80;;;;;;;;;;4976323;28;20510;-82
2021/08/10 07:20:31;;;;;;;72.25;68.82;;;;;;;;;;4958169;28;20050;-82
2021/08/10 07:22:58;;;;;;;67.30;63.92;;;;;;;;;;4975651;28;20061;-82
2021/08/10 07:25:25;;;;;;;65.70;62.58;;;;;;;;;;4974096;28;20047;-82
2021/08/10 07:27:51;;;;;;;70.13;66.47;;;;;;;;;;4975640;28;20051;-82
2021/08/10 07:30:19;;;;;;;54.85;52.10;;;;;;;;;;4975071;28;20737;-82
2021/08/10 07:32:46;;;;;;;63.47;60.25;;;;;;;;;;4974566;28;20058;-83
2021/08/10 07:35:13;;;;;;;51.17;48.60;;;;;;;;;;4990490;28;20050;-83
2021/08/10 07:37:40;;;;;;;65.43;62.13;;;;;;;;;;4993937;28;20058;-82
2021/08/10 07:40:08;;;;;;;78.82;74.90;;;;;;;;;;4993331;28;20182;-83
2021/08/10 07:42:35;;;;;;;53.45;50.97;;;;;;;;;;4995124;28;20050;-83
2021/08/10 07:45:02;;;;;;;56.50;53.80;;;;;;;;;;4995146;28;20038;-82
2021/08/10 07:47:30;;;;;;;64.05;61.08;;;;;;;;;;4995624;28;20053;-83
2021/08/10 07:49:56;;;;;;;56.63;53.92;;;;;;;;;;4995683;28;20052;-83
2021/08/10 07:52:23;;;;;;;68.93;65.60;;;;;;;;;;4996264;28;20058;-83
2021/08/10 07:54:50;;;;;;;73.70;70.18;;;;;;;;;;4996377;28;20484;-83
2021/08/10 07:57:17;;;;;;;79.50;75.93;;;;;;;;;;4995307;28;20046;-83
2021/08/10 07:59:44;;;;;;;83.88;80.13;;;;;;;;;;4999233;28;20046;-83
2021/08/10 08:02:10;;;;;;;76.82;73.45;;;;;;;;;;5000480;28;20050;-83
2021/08/10 08:04:38;;;;;;;78.07;74.55;;;;;;;;;;4997297;28;20054;-83
2021/08/10 08:07:05;;;;;;;74.43;71.03;;;;;;;;;;4989277;28;20050;-83
2021/08/10 08:09:32;;;;;;;86.85;82.72;;;;;;;;;;4994028;28;20479;-83
2021/08/10 08:11:59;;;;;;;75.40;71.93;;;;;;;;;;4974073;28;20054;-83
2021/08/10 08:14:26;;;;;;;73.90;70.38;;;;;;;;;;4989922;28;20107;-84
2021/08/10 08:16:53;;;;;;;74.85;71.53;;;;;;;;;;4991228;28;20056;-83
2021/08/10 08:19:20;;;;;;;75.80;72.50;;;;;;;;;;4989303;28;20081;-84
2021/08/10 08:21:48;;;;;;;73.90;70.63;;;;;;;;;;4979795;28;20046;-83
2021/08/10 08:24:15;;;;;;;74.72;71.43;;;;;;;;;;4981754;28;20055;-83
2021/08/10 08:26:41;;;;;;;70.43;67.20;;;;;;;;;;4979276;28;20047;-83
2021/08/10 08:29:08;;;;;;;76.15;72.70;;;;;;;;;;4981806;28;20047;-83
2021/08/10 08:31:35;;;;;;;79.47;75.97;;;;;;;;;;4988797;28;20061;-83
2021/08/10 08:34:02;;;;;;;96.68;92.00;;;;;;;;;;4998802;28;20038;-83
2021/08/10 08:36:29;;;;;;;80.13;76.38;;;;;;;;;;4996670;28;20058;-84
2021/08/10 08:38:57;;;;;;;80.57;76.97;;;;;;;;;;4978157;28;20051;-83
2021/08/10 08:41:23;;;;;;;74.78;71.50;;;;;;;;;;4980604;28;20042;-83
2021/08/10 08:43:50;;;;;;;75.07;71.47;;;;;;;;;;4979910;28;20211;-83
2021/08/10 08:46:17;;;;;;;67.45;64.38;;;;;;;;;;4978598;28;20503;-83
2021/08/10 08:48:44;;;;;;;59.83;57.22;;;;;;;;;;4979120;28;20109;-83
2021/08/10 08:51:11;;;;;;;74.40;71.05;;;;;;;;;;4979179;28;20086;-83
2021/08/10 08:53:43;;;;;;;72.68;69.57;;;;;;;;;;4979060;28;20043;-84
2021/08/10 08:56:11;;;;;;;37.22;35.13;;;;;;;;;;4979343;28;20043;-83
2021/08/10 08:58:38;;;;;;;38.05;36.25;;;;;;;;;;4979641;28;20053;-83
2021/08/10 09:01:05;;;;;;;40.22;38.20;;;;;;;;;;4983342;28;20053;-83
2021/08/10 09:03:34;;;;;;;20.83;19.63;;;;;;;;;;4998247;28;20050;-83
2021/08/10 09:06:00;;;;;;;13.73;12.90;;;;;;;;;;4983470;28;20051;-83
2021/08/10 09:08:32;;;;;;;5.68;5.15;;;;;;;;;;4979589;28;20051;-83
2021/08/10 09:11:00;;;;;;;17.70;16.75;;;;;;;;;;4979026;28;20050;-83
2021/08/10 09:13:28;;;;;;;11.75;11.07;;;;;;;;;;4984553;28;20047;-84
2021/08/10 09:15:59;;;;;;;17.52;16.52;;;;;;;;;;4985058;28;20066;-84
2021/08/10 09:18:26;;;;;;;25.50;24.17;;;;;;;;;;4983235;28;20430;-84
2021/08/10 09:21:02;;;;;;;66.00;62.80;;;;;;;;;;4981381;28;20069;-84
2021/08/10 09:23:39;;;;;;;51.53;49.17;;;;;;;;;;4982986;28;20050;-84
2021/08/10 09:26:08;;;;;;;42.97;41.03;;;;;;;;;;4996424;28;20046;-85
2021/08/10 09:28:36;;;;;;;50.38;48.03;;;;;;;;;;5003290;28;20050;-84
2021/08/10 09:31:32;;;;;;;104.82;100.32;;;;;;;;;;4989853;28;20487;-83
2021/08/10 09:34:00;;;;;;;103.45;98.85;;;;;;;;;;5003123;28;20058;-83
2021/08/10 09:36:27;;;;;;;59.22;56.58;;;;;;;;;;4999215;28;20046;-82
2021/08/10 09:38:54;;;;;;;82.90;78.70;;;;;;;;;;4999026;28;20482;-83
2021/08/10 09:41:21;;;;;;;92.72;88.60;;;;;;;;;;4999306;28;20064;-83
2021/08/10 09:43:50;;;;;;;91.70;87.47;;;;;;;;;;4999251;28;20053;-83
2021/08/10 09:46:17;;;;;;;63.90;60.97;;;;;;;;;;4998705;28;20053;-83
2021/08/10 09:48:53;;;;;;;9.70;8.77;;;;;;;;;;4998402;28;20050;-82
2021/08/10 09:51:22;;;;;;;56.90;54.33;;;;;;;;;;4998822;28;20565;-83
2021/08/10 09:53:55;;;;;;;82.00;78.18;;;;;;;;;;4999690;28;20053;-83
2021/08/10 09:56:22;;;;;;;60.88;58.17;;;;;;;;;;4999677;28;20046;-82
2021/08/10 09:59:00;;;;;;;74.53;71.18;;;;;;;;;;4999130;28;20042;-83
2021/08/10 10:01:31;;;;;;;74.50;71.15;;;;;;;;;;4999627;28;20050;-83
2021/08/10 10:04:08;;;;;;;35.53;33.78;;;;;;;;;;4999944;28;20101;-82
2021/08/10 10:06:35;;;;;;;35.47;33.67;;;;;;;;;;4998977;28;20487;-83
2021/08/10 10:09:02;;;;;;;33.50;31.83;;;;;;;;;;4999427;28;20058;-83
2021/08/10 10:11:31;;;;;;;67.10;63.97;;;;;;;;;;4999309;28;20047;-84
2021/08/10 10:13:59;;;;;;;59.20;56.47;;;;;;;;;;4997893;28;20482;-84
2021/08/10 10:16:27;;;;;;;12.48;11.65;;;;;;;;;;4998346;28;20043;-83
2021/08/10 10:18:54;;;;;;;22.88;21.67;;;;;;;;;;4998273;28;20050;-83
2021/08/10 10:21:22;;;;;;;28.25;26.95;;;;;;;;;;4998506;28;20095;-83
2021/08/10 10:23:49;;;;;;;27.42;26.02;;;;;;;;;;4990175;28;20671;-83
2021/08/10 10:26:17;;;;;;;38.45;36.75;;;;;;;;;;4978323;28;20186;-83
2021/08/10 10:28:44;;;;;;;34.28;32.65;;;;;;;;;;4979733;28;20051;-83
2021/08/10 10:31:20;;;;;;;41.22;39.15;;;;;;;;;;4980212;28;20050;-85
2021/08/10 10:33:47;;;;;;;44.83;42.83;;;;;;;;;;4979784;28;20047;-82
2021/08/10 10:36:15;;;;;;;52.10;49.60;;;;;;;;;;4979771;28;20053;-82
2021/08/10 10:38:42;;;;;;;48.80;46.33;;;;;;;;;;4992695;28;20049;-81
2021/08/10 10:41:10;;;;;;;43.55;41.50;;;;;;;;;;4999600;28;20043;-82
2021/08/10 10:43:36;;;;;;;52.67;50.33;;;;;;;;;;4999366;28;20046;-83
2021/08/10 10:46:25;;;;;;;57.50;54.92;;;;;;;;;;4999902;28;20046;-84
2021/08/10 10:48:52;;;;;;;71.55;68.40;;;;;;;;;;5000221;28;20051;-84
2021/08/10 10:51:24;;;;;;;50.05;47.75;;;;;;;;;;5001731;28;20058;-82
2021/08/10 10:53:50;;;;;;;54.92;52.47;;;;;;;;;;4998232;28;20050;-83
2021/08/10 10:56:34;;;;;;;66.68;63.42;;;;;;;;;;4999086;28;20051;-83
2021/08/10 10:59:20;;;;;;;61.90;59.15;;;;;;;;;;4977556;28;20051;-83
2021/08/10 11:01:48;;;;;;;59.55;56.83;;;;;;;;;;4978380;28;20050;-82
2021/08/10 11:04:14;;;;;;;51.72;49.42;;;;;;;;;;4979284;28;20058;-82
2021/08/10 11:06:45;;;;;;;50.60;48.38;;;;;;;;;;4976581;28;20051;-81
2021/08/10 11:09:57;;;;;;;45.80;43.65;;;;;;;;;;4975966;28;20062;-81
2021/08/10 11:12:36;;;;;;;60.58;57.85;;;;;;;;;;4980280;28;20854;-81
2021/08/10 11:15:03;;;;;;;56.45;53.72;;;;;;;;;;4996217;28;20467;-81
2021/08/10 11:17:31;;;;;;;56.33;53.85;;;;;;;;;;4996117;28;20062;-82
2021/08/10 11:19:57;;;;;;;52.00;49.67;;;;;;;;;;4994759;28;20061;-82
2021/08/10 11:22:25;;;;;;;52.92;50.33;;;;;;;;;;4995390;28;20053;-82
2021/08/10 11:24:59;;;;;;;53.55;51.13;;;;;;;;;;4994823;28;20396;-82
2021/08/10 11:27:44;;;;;;;46.08;44.08;;;;;;;;;;4995754;28;20046;-83
2021/08/10 11:30:13;;;;;;;68.97;65.83;;;;;;;;;;4995355;28;20491;-81
2021/08/10 11:32:45;;;;;;;48.83;46.67;;;;;;;;;;4994772;28;20297;-81
2021/08/10 11:35:29;;;;;;;44.03;42.13;;;;;;;;;;4994643;28;20054;-81
2021/08/10 11:38:07;;;;;;;54.88;52.15;;;;;;;;;;4995217;28;20050;-82
2021/08/10 11:40:57;;;;;;;48.10;45.92;;;;;;;;;;4995232;28;20046;-83
2021/08/10 11:43:33;;;;;;;35.10;33.50;;;;;;;;;;4994639;28;20561;-80
2021/08/10 11:45:59;;;;;;;41.80;40.00;;;;;;;;;;4995302;28;20046;-81
2021/08/10 11:48:27;;;;;;;49.20;46.97;;;;;;;;;;4995842;28;20539;-81
2021/08/10 11:50:54;;;;;;;46.30;44.17;;;;;;;;;;4995791;28;20046;-81
2021/08/10 11:53:31;;;;;;;44.15;41.67;;;;;;;;;;4993371;28;20125;-81
2021/08/10 11:55:58;;;;;;;36.90;35.08;;;;;;;;;;4994902;28;20058;-81
2021/08/10 11:58:43;;;;;;;32.85;31.38;;;;;;;;;;4984957;28;20054;-81
2021/08/10 12:01:10;;;;;;;28.20;26.58;;;;;;;;;;4995855;28;20066;-82
2021/08/10 12:03:37;;;;;;;49.28;47.08;;;;;;;;;;4979254;28;20047;-82
2021/08/10 12:06:04;;;;;;;33.38;31.55;;;;;;;;;;4979927;28;20053;-82
2021/08/10 12:08:31;;;;;;;41.50;39.40;;;;;;;;;;4995570;28;20042;-81
2021/08/10 12:10:57;;;;;;;59.30;56.53;;;;;;;;;;4995672;28;20046;-81
2021/08/10 12:13:25;;;;;;;42.97;40.78;;;;;;;;;;4995124;28;20050;-81
2021/08/10 12:15:52;;;;;;;47.50;45.20;;;;;;;;;;4996600;28;20042;-83
2021/08/10 12:18:19;;;;;;;44.63;42.65;;;;;;;;;;4997877;28;20056;-83
2021/08/10 12:21:01;;;;;;;41.83;39.92;;;;;;;;;;4997487;28;20046;-83
2021/08/10 12:23:38;;;;;;;36.40;34.67;;;;;;;;;;4997116;28;20042;-82
2021/08/10 12:26:09;;;;;;;34.30;32.78;;;;;;;;;;4996692;28;20133;-82
2021/08/10 12:28:51;;;;;;;40.22;38.33;;;;;;;;;;4996747;28;20411;-82
2021/08/10 12:31:17;;;;;;;44.63;42.38;;;;;;;;;;4996008;28;20046;-83
2021/08/10 12:33:48;;;;;;;51.67;49.40;;;;;;;;;;4995523;28;20562;-82
2021/08/10 12:36:16;;;;;;;39.38;37.67;;;;;;;;;;4996267;28;20108;-82
2021/08/10 12:38:44;;;;;;;38.83;36.83;;;;;;;;;;4996959;28;20046;-83
2021/08/10 12:41:11;;;;;;;39.70;37.67;;;;;;;;;;4997223;28;20113;-83
2021/08/10 12:43:37;;;;;;;37.58;35.75;;;;;;;;;;4996348;28;20050;-82
2021/08/10 12:46:25;;;;;;;49.25;46.83;;;;;;;;;;4996888;28;20387;-82
2021/08/10 12:49:10;;;;;;;35.85;34.13;;;;;;;;;;4998622;28;20454;-82
2021/08/10 12:51:58;;;;;;;55.08;52.40;;;;;;;;;;4999562;28;20092;-83
2021/08/10 12:54:26;;;;;;;35.67;33.83;;;;;;;;;;5002395;28;20046;-83
2021/08/10 12:56:53;;;;;;;38.33;36.40;;;;;;;;;;4998034;28;20056;-83
2021/08/10 12:59:20;;;;;;;34.45;32.63;;;;;;;;;;4998535;28;20051;-83
2021/08/10 13:01:48;;;;;;;29.20;27.83;;;;;;;;;;4998425;28;20046;-83
2021/08/10 13:04:15;;;;;;;40.00;37.95;;;;;;;;;;4997729;28;20054;-83
2021/08/10 13:06:43;;;;;;;36.05;34.17;;;;;;;;;;4998010;28;20109;-83
2021/08/10 13:09:11;;;;;;;22.60;21.40;;;;;;;;;;4999808;28;20396;-82
2021/08/10 13:11:37;;;;;;;24.98;23.52;;;;;;;;;;4996695;28;20077;-83
2021/08/10 13:14:08;;;;;;;24.45;23.15;;;;;;;;;;4998782;28;20057;-84
2021/08/10 13:16:36;;;;;;;28.50;26.77;;;;;;;;;;4998928;28;20102;-83
2021/08/10 13:19:11;;;;;;;38.13;36.13;;;;;;;;;;4998301;28;20046;-82
2021/08/10 13:21:45;;;;;;;40.85;38.63;;;;;;;;;;4997476;28;20046;-82
2021/08/10 13:24:14;;;;;;;38.80;37.00;;;;;;;;;;5000096;28;20046;-83
2021/08/10 13:26:41;;;;;;;31.30;29.77;;;;;;;;;;4999449;28;20443;-84
2021/08/10 13:29:08;;;;;;;44.88;42.60;;;;;;;;;;4997529;28;20422;-84
2021/08/10 13:31:46;;;;;;;37.45;35.75;;;;;;;;;;4996968;28;20384;-83
2021/08/10 13:34:13;;;;;;;33.42;31.70;;;;;;;;;;4998556;28;20052;-84
2021/08/10 13:36:40;;;;;;;40.85;38.80;;;;;;;;;;4999248;28;20070;-84
2021/08/10 13:39:07;;;;;;;53.03;50.38;;;;;;;;;;4997062;28;20042;-84
2021/08/10 13:41:40;;;;;;;32.70;30.80;;;;;;;;;;4999340;28;20050;-84
2021/08/10 13:44:08;;;;;;;26.52;25.00;;;;;;;;;;4999997;28;20050;-84
2021/08/10 13:46:34;;;;;;;49.75;47.25;;;;;;;;;;5000529;28;20072;-83
2021/08/10 13:49:10;;;;;;;28.73;26.80;;;;;;;;;;5000858;28;20039;-85
2021/08/10 13:51:38;;;;;;;34.50;32.60;;;;;;;;;;4997725;28;20046;-84
2021/08/10 13:56:49;;;;;;;34.25;32.63;;;;;;;;;;4999825;28;20149;-85
2021/08/10 13:59:16;;;;;;;41.47;39.42;;;;;;;;;;5000781;28;20051;-84
2021/08/10 14:01:46;;;;;;;28.92;27.45;;;;;;;;;;4998824;28;20046;-84
2021/08/10 14:04:13;;;;;;;31.45;29.80;;;;;;;;;;4999863;28;20077;-84
2021/08/10 14:06:40;;;;;;;34.22;32.42;;;;;;;;;;5000172;28;20483;-82
2021/08/10 14:09:10;;;;;;;41.00;38.95;;;;;;;;;;5001358;28;20054;-84
2021/08/10 14:11:37;;;;;;;38.75;36.75;;;;;;;;;;5002803;28;20046;-83
2021/08/10 14:14:06;;;;;;;41.92;39.85;;;;;;;;;;5001293;28;20496;-84
2021/08/10 14:16:32;;;;;;;43.60;41.60;;;;;;;;;;4982243;28;20053;-83
2021/08/10 14:18:59;;;;;;;44.83;42.75;;;;;;;;;;4982425;28;20053;-84
2021/08/10 14:21:26;;;;;;;42.78;40.78;;;;;;;;;;4999874;28;20053;-83
2021/08/10 14:23:53;;;;;;;58.20;55.47;;;;;;;;;;4998794;28;20076;-83
2021/08/10 14:26:19;;;;;;;36.50;34.45;;;;;;;;;;4996613;28;20064;-83
2021/08/10 14:28:46;;;;;;;37.50;35.55;;;;;;;;;;4997149;28;20047;-84